Latest Weather Observations for St George

IDQ60801

Issued at 8:32 pm EST Friday 30 January 2015 (issued every 30 minutes, with the page automatically refreshed every 10 minutes)

About weather observations | Map of weather stations | Latest weather observations for QLD | Other Formats
Station Details ID: 043109 Name: ST GEORGE AIRPORT Lat: -28.05 Lon: 148.59 Height: 198.5 m
Data from the previous 72 hours. | See also: Recent months at St George
Date/Time
EST
Temp
°C
App
Temp
°C
Dew
Point
Rel
Hum
%
Delta-T
°C
Wind Press
QNH
hPa
Press
MSL
hPa
Rain
since 9 am
mm
Dir
 
Spd
km/h
Gust
km/h
Spd
kts
Gust
kts
30/08:30pm 25.5 25.1 8.1 33 9.4 CALM 0 0 0 0 1005.9 - 0.0
30/08:00pm 26.8 25.8 7.3 29 10.5 E 2 6 1 3 1005.9 - 0.0
30/07:30pm 28.3 26.3 7.0 26 11.5 SE 7 7 4 4 1005.7 - 0.0
30/07:00pm 29.7 27.3 7.0 24 12.3 SSE 9 9 5 5 1005.5 - 0.0
30/06:30pm 31.1 27.8 4.8 19 13.9 S 11 13 6 7 1005.2 - 0.0
30/06:00pm 32.2 28.4 4.1 17 14.8 S 13 19 7 10 1005.0 1003.7 0.0
30/05:30pm 32.7 28.6 4.5 17 14.9 S 15 24 8 13 1004.8 - 0.0
30/05:00pm 32.6 28.9 4.4 17 14.9 SSW 13 17 7 9 1004.8 - 0.0
30/04:30pm 32.8 29.9 4.6 17 14.9 S 9 13 5 7 1005.0 - 0.0
30/04:00pm 33.8 29.2 3.6 15 15.8 SW 17 28 9 15 1005.2 - 0.0
30/03:30pm 32.5 28.2 5.1 18 14.6 S 17 22 9 12 1005.6 - 0.0
30/03:00pm 34.0 28.4 3.7 15 16.0 W 22 30 12 16 1005.7 1004.4 0.0
30/02:30pm 33.4 29.5 3.3 15 15.7 S 13 24 7 13 1006.4 - 0.0
30/02:00pm 32.2 28.1 2.3 15 15.2 WSW 13 32 7 17 1006.8 - 0.0
30/01:48pm 33.3 26.7 4.1 16 15.4 WSW 28 46 15 25 1006.8 - 0.0
30/01:30pm 32.4 27.4 3.4 16 15.0 SSW 19 32 10 17 1007.1 - 0.0
30/01:00pm 32.5 27.3 3.5 16 15.1 SW 20 32 11 17 1007.5 - 0.0
30/12:30pm 32.5 28.2 3.5 16 15.1 WNW 15 28 8 15 1007.9 - 0.0
30/12:00pm 31.6 25.6 3.6 17 14.5 SSW 24 35 13 19 1008.2 1006.9 0.0
30/11:30am 31.4 26.5 4.2 18 14.2 SW 19 30 10 16 1008.7 - 0.0
30/11:00am 31.3 25.8 4.2 18 14.1 W 22 30 12 16 1008.9 - 0.0
30/10:30am 31.0 27.7 4.7 19 13.8 S 11 24 6 13 1009.2 - 0.0
30/10:00am 30.4 26.6 5.6 21 13.2 NNW 15 24 8 13 1009.4 - 0.0
30/09:30am 29.4 26.3 5.5 22 12.6 NW 11 17 6 9 1009.4 - 0.0
30/09:00am 28.6 24.6 6.7 25 11.8 N 17 22 9 12 1009.5 1008.2 0.0
30/08:30am 27.5 24.8 8.9 31 10.3 N 13 17 7 9 1009.6 - 0.0
30/08:00am 25.8 23.3 9.6 36 9.0 N 13 19 7 10 1009.6 - 0.0
30/07:30am 23.5 21.8 11.2 46 6.9 NNW 11 13 6 7 1009.6 - 0.0
30/07:00am 22.2 20.8 11.0 49 6.3 N 9 11 5 6 1009.4 - 0.0
30/06:30am 20.1 18.7 10.8 55 5.1 N 9 11 5 6 1009.2 - 0.0
30/06:00am 17.6 16.7 11.2 66 3.5 N 7 9 4 5 1009.0 1007.7 0.0
30/05:30am 18.1 17.1 10.2 60 4.2 NNE 6 11 3 6 1008.7 - 0.0
30/05:00am 17.5 16.5 10.9 65 3.6 NNE 7 9 4 5 1008.4 - 0.0
30/04:30am 17.4 16.7 11.4 68 3.3 ENE 6 6 3 3 1008.4 - 0.0
30/04:00am 17.1 16.3 11.2 68 3.2 NE 6 7 3 4 1008.3 - 0.0
30/03:30am 17.6 16.7 11.2 66 3.5 NNE 7 9 4 5 1008.3 - 0.0
30/03:00am 18.1 18.4 11.0 63 3.9 CALM 0 0 0 0 1008.4 1007.1 0.0
30/02:30am 19.1 18.2 10.6 58 4.6 ENE 6 7 3 4 1008.6 - 0.0
30/02:00am 19.5 18.5 10.2 55 5.0 ESE 6 7 3 4 1008.9 - 0.0
30/01:30am 21.1 19.7 9.4 47 6.3 ESE 7 9 4 5 1009.1 - 0.0
30/01:00am 21.6 19.8 9.5 46 6.6 ESE 9 11 5 6 1009.3 - 0.0
30/12:30am 20.8 19.7 10.6 52 5.6 SE 7 9 4 5 1009.5 - 0.0
30/12:00am 20.2 19.5 11.4 57 4.9 SSE 6 7 3 4 1009.7 1008.4 0.0
 
Date/Time
EST
Temp
°C
App
Temp
°C
Dew
Point
Rel
Hum
%
Delta-T
°C
Wind Press
QNH
hPa
Press
MSL
hPa
Rain
since 9 am
mm
Dir
 
Spd
km/h
Gust
km/h
Spd
kts
Gust
kts
29/11:30pm 20.5 19.9 12.2 59 4.7 S 7 9 4 5 1009.7 - 0.0
29/11:00pm 19.9 19.6 12.7 63 4.1 S 6 7 3 4 1009.8 - 0.0
29/10:30pm 20.5 20.8 13.5 64 4.0 SSE 4 6 2 3 1009.7 - 0.0
29/10:00pm 20.9 21.8 12.8 60 4.6 CALM 0 0 0 0 1009.6 - 0.0
29/09:30pm 21.8 22.0 11.8 53 5.6 SE 2 6 1 3 1009.7 - 0.0
29/09:00pm 22.8 22.0 11.2 48 6.5 SE 6 6 3 3 1009.6 1008.3 0.0
29/08:30pm 24.3 23.4 10.6 42 7.7 SE 6 7 3 4 1009.3 - 0.0
29/08:00pm 24.9 23.7 10.4 40 8.1 SSE 7 7 4 4 1009.1 - 0.0
29/07:30pm 25.6 24.4 10.2 38 8.6 SSE 7 9 4 5 1009.0 - 0.0
29/07:00pm 27.0 24.7 8.9 32 10.0 SSE 11 13 6 7 1008.8 - 0.0
29/06:30pm 28.4 24.9 8.7 29 10.9 SE 17 22 9 12 1008.4 - 0.0
29/06:00pm 28.9 24.8 8.6 28 11.3 SSE 20 26 11 14 1008.1 1006.7 0.0
29/05:30pm 29.5 25.8 9.6 29 11.2 SE 19 28 10 15 1007.7 - 0.0
29/05:00pm 28.7 25.7 9.4 30 10.8 S 15 20 8 11 1007.7 - 0.0
29/04:30pm 28.6 24.9 9.3 30 10.8 S 19 24 10 13 1007.7 - 0.0
29/04:00pm 28.9 25.4 10.1 31 10.7 SSW 19 24 10 13 1007.8 - 0.0
29/03:30pm 29.7 26.4 10.8 31 10.9 SSE 19 32 10 17 1007.9 - 0.0
29/03:00pm 29.7 27.5 12.2 34 10.3 SSE 15 22 8 12 1008.2 1006.9 0.0
29/02:30pm 28.6 24.7 10.8 33 10.2 SSE 22 43 12 23 1008.5 - 0.0
29/02:00pm 28.5 25.3 11.1 34 10.0 ESE 19 24 10 13 1008.7 - 0.0
29/01:30pm 28.6 25.6 12.1 36 9.7 SSE 19 43 10 23 1009.0 - 0.0
29/01:00pm 28.9 26.1 13.2 38 9.4 S 20 28 11 15 1009.3 - 0.0
29/12:30pm 27.2 24.5 12.8 41 8.5 SE 19 28 10 15 1009.7 - 0.0
29/12:00pm 27.0 25.5 14.1 45 7.8 SE 15 28 8 15 1009.9 1008.6 0.0
29/11:30am 26.4 25.5 14.8 49 7.0 SE 13 26 7 14 1010.3 - 0.0
29/11:00am 25.2 24.0 14.0 49 6.7 SE 13 20 7 11 1010.7 - 0.0
29/10:30am 25.1 24.4 14.3 51 6.5 E 11 20 6 11 1010.9 - 0.0
29/10:00am 24.2 23.0 14.0 53 6.0 E 13 24 7 13 1011.0 - 0.0
29/09:30am 23.7 21.8 14.1 55 5.7 ESE 17 24 9 13 1011.2 - 0.0
29/09:00am 22.8 20.5 14.1 58 5.1 SE 19 26 10 14 1011.2 1009.8 0.0
29/08:30am 22.3 20.8 15.2 64 4.3 ESE 17 26 9 14 1011.0 - 0.0
29/08:00am 21.9 20.6 15.7 68 3.7 ESE 17 24 9 13 1010.9 - 0.0
29/07:30am 21.0 20.2 16.0 73 3.0 ESE 15 20 8 11 1010.8 - 0.0
29/07:00am 20.1 19.7 16.3 79 2.3 ESE 13 19 7 10 1010.5 - 0.0
29/06:30am 19.0 18.7 16.4 85 1.6 SE 13 17 7 9 1010.2 - 0.0
29/06:00am 18.4 18.2 16.6 89 1.1 SE 13 17 7 9 1009.7 1008.4 0.0
29/05:30am 18.1 18.0 16.1 88 1.2 SE 11 13 6 7 1009.4 - 0.0
29/05:00am 18.0 18.0 15.1 83 1.7 SE 9 11 5 6 1008.9 - 0.0
29/04:30am 18.8 18.9 14.5 76 2.5 E 7 7 4 4 1008.5 - 0.0
29/04:00am 19.5 19.7 14.7 74 2.8 E 7 9 4 5 1008.2 - 0.0
29/03:30am 19.9 20.0 14.5 71 3.2 E 7 9 4 5 1008.1 - 0.0
29/03:00am 20.6 20.4 14.7 69 3.5 ENE 9 13 5 7 1007.9 1006.5 0.0
29/02:30am 21.1 20.1 14.7 67 3.8 ENE 13 20 7 11 1008.0 - 0.0
29/02:00am 21.5 19.9 15.1 67 3.8 ENE 17 26 9 14 1008.0 - 0.0
29/01:30am 22.1 20.4 15.7 67 3.9 ENE 19 28 10 15 1008.3 - 0.0
29/01:00am 22.5 20.6 16.8 70 3.5 E 22 32 12 17 1008.5 - 0.0
29/12:30am 22.3 21.9 17.2 73 3.2 SE 15 20 8 11 1008.7 - 0.0
29/12:00am 22.3 21.9 17.2 73 3.2 SE 15 19 8 10 1008.6 1007.3 0.0
 
Date/Time
EST
Temp
°C
App
Temp
°C
Dew
Point
Rel
Hum
%
Delta-T
°C
Wind Press
QNH
hPa
Press
MSL
hPa
Rain
since 9 am
mm
Dir
 
Spd
km/h
Gust
km/h
Spd
kts
Gust
kts
28/11:30pm 22.3 23.4 17.9 76 2.8 SSE 9 15 5 8 1008.8 - 0.0
28/11:00pm 22.2 22.8 17.6 75 2.9 SSE 11 15 6 8 1008.8 - 0.0
28/10:30pm 21.9 23.3 17.3 75 2.9 E 6 7 3 4 1008.6 - 0.0
28/10:00pm 22.1 22.9 17.2 74 3.0 ESE 9 11 5 6 1008.3 - 0.0
28/09:30pm 22.5 23.6 17.2 72 3.3 SE 7 9 4 5 1008.4 - 0.0
28/09:00pm 22.4 23.1 17.1 72 3.3 SSE 9 9 5 5 1007.9 1006.5 0.0
28/08:30pm 23.5 24.6 16.5 65 4.3 ESE 6 7 3 4 1007.4 - 0.0
28/08:00pm 23.9 24.6 16.2 62 4.7 ESE 7 9 4 5 1006.9 - 0.0
28/07:30pm 24.4 25.0 15.9 59 5.2 SE 7 9 4 5 1006.7 - 0.0
28/07:00pm 25.7 25.0 15.4 53 6.3 ESE 13 17 7 9 1006.5 - 0.0
28/06:30pm 26.5 25.4 15.2 49 6.9 SE 15 20 8 11 1006.4 - 0.0
28/06:00pm 26.8 24.9 15.8 51 6.8 SE 20 28 11 15 1006.2 1004.8 0.0
28/05:30pm 27.0 25.1 15.7 50 7.0 SE 20 30 11 16 1006.0 - 0.0
28/05:00pm 27.4 24.9 16.1 50 7.0 SSE 24 30 13 16 1005.5 - 0.0
28/04:30pm 27.2 25.9 16.8 53 6.5 SSE 19 26 10 14 1005.3 - 0.0
28/04:00pm 26.9 24.3 15.9 51 6.8 SSE 24 33 13 18 1005.3 - 0.0
28/03:30pm 27.1 25.5 16.1 51 6.8 ESE 19 26 10 14 1005.3 - 0.0
28/03:00pm 27.8 27.2 18.5 57 6.0 SSE 19 24 10 13 1005.6 1004.3 0.0
28/02:30pm 26.6 25.4 17.1 56 6.0 SE 19 24 10 13 1005.9 - 0.0
28/02:00pm 25.4 24.6 17.1 60 5.2 SE 17 24 9 13 1006.2 - 0.0
28/01:30pm 25.3 24.5 17.0 60 5.2 ESE 17 22 9 12 1006.6 - 0.0
28/01:00pm 25.4 24.8 17.6 62 4.9 ESE 17 24 9 13 1006.7 - 0.0
28/12:30pm 23.8 23.1 17.3 67 4.1 SE 17 22 9 12 1007.2 - 0.0
28/12:00pm 23.4 22.7 17.4 69 3.8 ESE 17 22 9 12 1007.4 1006.0 0.0
28/11:30am 22.5 20.9 16.5 69 3.7 SE 20 28 11 15 1007.4 - 0.0
28/11:00am 21.4 19.9 16.8 75 2.8 ESE 20 30 11 16 1007.7 - 0.0
28/10:30am 21.0 19.4 16.6 76 2.7 ESE 20 28 11 15 1007.8 - 0.0
28/10:00am 20.8 19.4 17.0 79 2.3 ESE 20 28 11 15 1007.9 - 0.0
28/09:30am 20.1 18.7 17.1 83 1.8 ESE 20 28 11 15 1007.8 - 0.0
28/09:00am 19.8 19.1 17.4 86 1.5 ESE 17 26 9 14 1007.8 1006.4 3.8
28/08:30am 19.2 18.3 17.7 91 0.9 SE 19 28 10 15 1007.5 - 3.8
28/08:00am 18.9 17.8 17.7 93 0.7 SE 20 26 11 14 1007.4 - 3.8
28/07:30am 18.9 17.9 17.6 92 0.8 SE 19 22 10 12 1007.0 - 3.8
28/07:00am 19.1 18.5 17.6 91 0.9 SE 17 24 9 13 1006.7 - 3.8
28/06:30am 19.8 19.0 17.2 85 1.6 ESE 17 26 9 14 1006.3 - 3.8
28/06:00am 19.7 19.7 17.1 85 1.6 SE 13 19 7 10 1005.9 1004.5 3.8
28/05:30am 19.7 20.0 16.9 84 1.7 ESE 11 15 6 8 1005.4 - 3.8
28/05:00am 19.6 20.0 17.2 86 1.5 SE 11 15 6 8 1005.3 - 3.8
28/04:30am 19.2 19.9 17.0 87 1.3 SE 9 11 5 6 1005.0 - 3.8
28/04:00am 18.9 19.1 16.7 87 1.3 SSE 11 13 6 7 1004.8 - 3.8
28/03:30am 19.3 20.3 16.9 86 1.5 SE 7 9 4 5 1004.8 - 3.8
28/03:00am 19.8 20.7 16.6 82 2.0 E 7 9 4 5 1004.4 1003.1 3.8
28/02:30am 20.0 20.6 16.8 82 2.0 E 9 11 5 6 1004.4 - 3.8
28/02:00am 20.2 20.4 16.8 81 2.1 ENE 11 17 6 9 1004.7 - 3.8
28/01:30am 20.0 20.3 17.0 83 1.8 ENE 11 19 6 10 1005.4 - 3.8
28/01:00am 19.9 21.0 17.1 84 1.7 ESE 7 11 4 6 1005.7 - 3.8
28/12:30am 20.2 21.0 17.2 83 1.8 ESE 9 13 5 7 1006.1 - 3.8
28/12:00am 20.4 19.6 17.0 81 2.1 E 17 28 9 15 1005.6 1004.3 3.8
 
Date/Time
EST
Temp
°C
App
Temp
°C
Dew
Point
Rel
Hum
%
Delta-T
°C
Wind Press
QNH
hPa
Press
MSL
hPa
Rain
since 9 am
mm
Dir
 
Spd
km/h
Gust
km/h
Spd
kts
Gust
kts
27/11:30pm 20.3 19.0 16.9 81 2.1 ENE 19 33 10 18 1005.5 - 3.8
27/11:00pm 20.2 18.8 17.0 82 2.0 E 20 33 11 18 1006.4 - 3.8
27/10:30pm 19.7 17.9 16.9 84 1.7 E 22 37 12 20 1006.3 - 3.8
27/10:00pm 19.4 16.8 16.8 85 1.6 ESE 26 37 14 20 1007.1 - 3.8
27/09:53pm 19.5 16.5 16.7 84 1.7 ESE 28 46 15 25 1007.0 - 3.8
27/09:30pm 19.6 18.0 17.4 87 1.4 E 22 32 12 17 1007.1 - 3.8
27/09:00pm 19.6 17.2 17.4 87 1.4 ESE 26 43 14 23 1007.3 1005.9 3.8

Other Formats:

Comma delimited format used in spreadsheet applications
http://www.bom.gov.au/fwo/IDQ60801/IDQ60801.94517.axf

JavaScript Object Notation format (JSON) in row-major order
http://www.bom.gov.au/fwo/IDQ60801/IDQ60801.94517.json